Time;durP1;ratioP1;P1;durP2;ratioP2;P2;SDS_P1;SDS_P2;PMS_P1;PMS_P2;Temp;Humidity;BMP_temperature;BMP_pressure;BME280_temperature;BME280_humidity;BME280_pressure;Samples;Min_cycle;Max_cycle;Signal;HPM_P1;HPM_P2
2023/06/11 00:01:50;;;;;;;11.20;10.00;;;;;;;19.93;57.69;101387.28;5049485;28;20072;-76
2023/06/11 00:04:19;;;;;;;10.73;9.65;;;;;;;19.94;57.32;101390.88;5052198;28;20021;-77
2023/06/11 00:06:45;;;;;;;10.88;9.73;;;;;;;19.96;57.28;101378.59;5051770;28;20068;-77
2023/06/11 00:09:10;;;;;;;10.25;9.20;;;;;;;19.95;57.40;101390.59;5048991;28;20128;-76
2023/06/11 00:11:41;;;;;;;10.43;9.25;;;;;;;19.91;57.47;101388.63;5053808;28;20053;-77
2023/06/11 00:14:08;;;;;;;10.32;9.32;;;;;;;19.93;57.47;101386.47;5051085;28;20021;-77
2023/06/11 00:16:36;;;;;;;11.27;8.80;;;;;;;19.90;57.33;101392.44;5051298;28;20522;-76
2023/06/11 00:19:02;;;;;;;11.82;9.25;;;;;;;19.81;57.61;101384.59;5051964;28;20028;-77
2023/06/11 00:21:28;;;;;;;11.75;9.38;;;;;;;19.81;57.47;101383.78;5051009;28;20144;-77
2023/06/11 00:23:54;;;;;;;10.00;9.00;;;;;;;19.75;57.62;101382.88;5046924;28;20029;-77
2023/06/11 00:26:20;;;;;;;9.63;8.68;;;;;;;19.71;57.30;101381.69;5038934;28;20021;-78
2023/06/11 00:28:45;;;;;;;9.85;8.65;;;;;;;19.65;57.40;101382.66;5052169;28;20483;-77
2023/06/11 00:31:11;;;;;;;10.82;8.52;;;;;;;19.62;57.59;101378.53;5052302;28;20083;-78
2023/06/11 00:33:36;;;;;;;9.75;8.75;;;;;;;19.58;57.73;101379.28;5052134;28;20021;-77
2023/06/11 00:36:02;;;;;;;9.70;8.57;;;;;;;19.52;57.79;101375.59;5049008;28;20412;-78
2023/06/11 00:38:28;;;;;;;8.93;8.13;;;;;;;19.45;57.83;101375.75;5052905;28;20029;-77
2023/06/11 00:40:54;;;;;;;11.25;9.10;;;;;;;19.42;57.97;101375.41;5052339;28;20025;-77
2023/06/11 00:43:24;;;;;;;9.93;8.68;;;;;;;19.32;57.89;101376.03;5043745;28;20028;-78
2023/06/11 00:45:50;;;;;;;11.68;9.65;;;;;;;19.27;58.39;101363.13;5024590;28;20086;-78
2023/06/11 00:48:17;;;;;;;9.85;8.95;;;;;;;19.23;58.43;101361.94;5047027;28;20396;-78
2023/06/11 00:50:47;;;;;;;12.80;9.55;;;;;;;19.15;58.56;101365.06;5050879;28;20025;-78
2023/06/11 00:53:12;;;;;;;10.48;9.40;;;;;;;19.05;58.61;101366.50;5048456;28;20033;-78
2023/06/11 00:55:38;;;;;;;9.88;8.98;;;;;;;19.00;58.81;101362.84;5049326;28;20025;-76
2023/06/11 00:58:04;;;;;;;12.15;9.93;;;;;;;18.96;58.97;101370.69;5049611;28;20036;-79
2023/06/11 01:00:30;;;;;;;10.75;9.65;;;;;;;18.94;58.90;101368.19;5028591;28;20017;-77
2023/06/11 01:03:00;;;;;;;9.90;8.88;;;;;;;18.90;59.09;101369.69;5026706;28;20621;-76
2023/06/11 01:05:25;;;;;;;9.88;8.93;;;;;;;18.78;59.34;101363.44;5013649;28;20469;-76
2023/06/11 01:07:51;;;;;;;11.63;9.85;;;;;;;18.74;59.43;101365.84;5049452;28;20064;-79
2023/06/11 01:10:21;;;;;;;9.52;8.57;;;;;;;18.68;59.60;101365.97;5016780;23;20038;-78
2023/06/11 01:12:48;;;;;;;11.30;9.82;;;;;;;18.68;59.55;101371.41;4996673;28;20061;-79
2023/06/11 01:15:14;;;;;;;10.27;8.88;;;;;;;18.62;59.60;101368.56;4990808;28;20366;-78
2023/06/11 01:17:41;;;;;;;11.98;9.80;;;;;;;18.55;59.92;101367.84;4990377;28;20030;-79
2023/06/11 01:20:13;;;;;;;9.65;8.57;;;;;;;18.52;59.89;101362.91;4992557;28;20466;-78
2023/06/11 01:22:57;;;;;;;9.88;8.88;;;;;;;18.48;60.24;101367.16;4989061;28;20046;-79
2023/06/11 01:26:02;;;;;;;9.27;8.30;;;;;;;18.42;59.83;101362.66;4999101;28;20053;-79
2023/06/11 01:28:31;;;;;;;10.57;9.07;;;;;;;18.33;60.28;101371.19;4990790;28;20032;-78
2023/06/11 01:31:00;;;;;;;10.02;9.02;;;;;;;18.31;60.23;101370.59;4988689;28;20026;-76
2023/06/11 01:33:26;;;;;;;10.43;9.05;;;;;;;18.28;60.25;101368.34;4998734;28;20026;-76
2023/06/11 01:35:52;;;;;;;10.45;9.45;;;;;;;18.24;60.12;101369.88;4990479;28;20038;-77
2023/06/11 01:38:21;;;;;;;9.30;8.23;;;;;;;18.20;60.29;101371.41;4988787;28;20018;-78
2023/06/11 01:40:47;;;;;;;10.88;9.57;;;;;;;18.15;60.34;101368.56;4995226;28;20174;-77
2023/06/11 01:43:12;;;;;;;10.80;9.15;;;;;;;18.12;60.54;101367.13;4996166;28;20416;-77
2023/06/11 01:45:38;;;;;;;10.30;9.20;;;;;;;18.09;60.74;101372.22;4990312;28;20411;-77
2023/06/11 01:48:04;;;;;;;9.38;8.48;;;;;;;18.10;60.48;101371.16;4991634;28;20031;-77
2023/06/11 01:50:30;;;;;;;11.52;9.23;;;;;;;18.06;60.60;101380.84;4989588;28;20069;-78
2023/06/11 01:52:56;;;;;;;9.55;8.52;;;;;;;18.06;60.73;101383.59;4989868;28;20038;-77
2023/06/11 01:55:22;;;;;;;9.77;8.77;;;;;;;18.06;60.54;101380.84;4997360;28;20073;-77
2023/06/11 01:57:47;;;;;;;9.88;9.00;;;;;;;18.05;60.51;101382.78;4991228;28;20402;-77
2023/06/11 02:00:14;;;;;;;10.23;8.77;;;;;;;17.99;60.53;101370.91;4995147;28;20034;-77
2023/06/11 02:02:40;;;;;;;9.43;8.38;;;;;;;17.98;60.44;101377.44;4996103;28;20030;-77
2023/06/11 02:05:06;;;;;;;10.00;8.95;;;;;;;17.95;60.49;101380.59;4989203;28;20431;-77
2023/06/11 02:07:32;;;;;;;9.57;8.55;;;;;;;17.86;60.88;101385.53;4987009;28;20041;-77
2023/06/11 02:09:57;;;;;;;9.93;8.57;;;;;;;17.85;60.71;101377.59;4986816;28;20035;-77
2023/06/11 02:12:23;;;;;;;9.65;8.65;;;;;;;17.85;61.06;101383.88;4991695;28;20421;-77
2023/06/11 02:14:48;;;;;;;10.10;9.10;;;;;;;17.88;60.73;101385.28;4992582;28;20034;-77
2023/06/11 02:17:14;;;;;;;10.00;8.88;;;;;;;17.85;60.80;101385.75;4993151;28;20073;-78
2023/06/11 02:19:40;;;;;;;9.50;8.60;;;;;;;17.80;61.00;101383.72;4992972;28;20081;-77
2023/06/11 02:22:05;;;;;;;11.55;8.63;;;;;;;17.70;61.37;101383.47;4990666;28;20034;-77
2023/06/11 02:24:30;;;;;;;10.38;9.25;;;;;;;17.71;61.29;101385.97;4990575;28;20088;-77
2023/06/11 02:26:56;;;;;;;9.60;8.70;;;;;;;17.68;61.20;101388.31;4992509;28;20029;-78
2023/06/11 02:29:21;;;;;;;11.10;8.57;;;;;;;17.67;61.22;101386.66;4991439;28;20046;-78
2023/06/11 02:31:46;;;;;;;10.30;8.80;;;;;;;17.64;61.33;101382.50;4990878;28;20050;-77
2023/06/11 02:34:12;;;;;;;9.55;8.55;;;;;;;17.62;61.10;101381.91;4993676;28;20125;-77
2023/06/11 02:36:37;;;;;;;13.98;9.27;;;;;;;17.59;61.48;101376.94;4992436;28;20003;-77
2023/06/11 02:39:05;;;;;;;10.00;9.00;;;;;;;17.55;61.88;101373.00;4991548;28;20022;-77
2023/06/11 02:41:31;;;;;;;9.75;8.70;;;;;;;17.54;61.64;101374.06;4990914;28;20053;-77
2023/06/11 02:43:56;;;;;;;9.88;8.82;;;;;;;17.51;61.76;101377.22;4989815;28;20073;-77
2023/06/11 02:46:21;;;;;;;10.00;8.85;;;;;;;17.48;61.76;101375.81;4990455;28;20038;-77
2023/06/11 02:48:47;;;;;;;9.13;8.07;;;;;;;17.45;62.07;101381.72;4990672;28;20034;-78
2023/06/11 02:51:12;;;;;;;10.32;9.18;;;;;;;17.40;62.05;101370.69;4989904;28;20030;-78
2023/06/11 02:53:38;;;;;;;11.55;8.75;;;;;;;17.36;62.10;101367.59;4989470;28;20034;-77
2023/06/11 02:56:03;;;;;;;9.75;8.85;;;;;;;17.33;62.32;101372.69;4990356;28;20038;-78
2023/06/11 02:58:29;;;;;;;10.55;8.77;;;;;;;17.26;62.61;101362.69;4991532;28;20034;-78
2023/06/11 03:00:57;;;;;;;9.88;8.68;;;;;;;17.25;62.49;101374.63;4989534;28;20034;-78
2023/06/11 03:03:22;;;;;;;9.70;8.80;;;;;;;17.30;62.42;101373.94;4983243;28;20030;-78
2023/06/11 03:05:48;;;;;;;9.35;8.48;;;;;;;17.23;62.86;101373.22;4989328;28;20029;-78
2023/06/11 03:08:13;;;;;;;11.85;8.70;;;;;;;17.18;62.75;101381.22;4986477;28;20378;-78
2023/06/11 03:10:38;;;;;;;11.35;9.35;;;;;;;17.11;62.86;101384.88;5004018;28;20563;-77
2023/06/11 03:13:04;;;;;;;9.85;8.85;;;;;;;17.04;63.02;101375.94;5011797;28;20041;-78
2023/06/11 03:15:30;;;;;;;10.57;9.35;;;;;;;17.04;63.04;101383.25;5012519;28;20472;-78
2023/06/11 03:17:58;;;;;;;9.18;8.27;;;;;;;16.99;63.26;101378.50;5025776;28;20079;-77
2023/06/11 03:20:23;;;;;;;10.25;9.25;;;;;;;16.94;63.45;101379.19;4998721;28;20030;-77
2023/06/11 03:22:49;;;;;;;10.00;9.07;;;;;;;17.04;63.36;101380.53;5006141;28;20060;-78
2023/06/11 03:25:14;;;;;;;10.57;9.48;;;;;;;17.05;63.11;101376.78;5022715;28;20026;-78
2023/06/11 03:27:40;;;;;;;10.25;9.25;;;;;;;17.08;63.08;101382.59;5020488;28;20037;-78
2023/06/11 03:30:06;;;;;;;10.60;9.10;;;;;;;17.08;62.97;101385.34;5015316;28;20071;-78
2023/06/11 03:32:35;;;;;;;12.75;9.57;;;;;;;17.07;62.98;101383.66;5009325;28;20045;-78
2023/06/11 03:35:00;;;;;;;10.00;8.93;;;;;;;17.10;62.91;101382.38;5012533;28;20557;-77
2023/06/11 03:37:27;;;;;;;9.63;8.65;;;;;;;17.08;63.22;101376.31;5012142;28;20032;-78
2023/06/11 03:39:52;;;;;;;9.75;8.82;;;;;;;17.10;62.91;101385.94;5012306;28;20501;-77
2023/06/11 03:42:17;;;;;;;9.32;8.43;;;;;;;17.09;62.81;101372.53;5024253;28;20033;-77
2023/06/11 03:44:43;;;;;;;11.05;9.15;;;;;;;17.12;63.04;101381.06;5015818;28;20026;-78
2023/06/11 03:47:08;;;;;;;9.70;8.70;;;;;;;17.12;63.00;101381.06;5017133;28;20038;-77
2023/06/11 03:49:34;;;;;;;9.73;8.07;;;;;;;17.13;62.78;101382.72;5011955;28;20048;-78
2023/06/11 03:52:00;;;;;;;9.88;8.88;;;;;;;17.17;62.89;101379.56;5008087;28;20076;-78
2023/06/11 03:54:25;;;;;;;10.60;9.55;;;;;;;17.20;62.92;101379.13;5012831;28;20029;-77
2023/06/11 03:56:50;;;;;;;10.10;8.93;;;;;;;17.24;62.61;101385.75;5012946;28;20026;-77
2023/06/11 03:59:16;;;;;;;13.13;9.32;;;;;;;17.27;62.67;101379.88;5016947;28;20584;-77
2023/06/11 04:01:41;;;;;;;11.38;9.00;;;;;;;17.32;62.79;101380.00;5015295;28;20037;-77
2023/06/11 04:04:06;;;;;;;10.27;9.02;;;;;;;17.38;62.26;101378.28;5019488;28;20022;-77
2023/06/11 04:06:38;;;;;;;9.98;9.00;;;;;;;17.46;62.05;101379.84;5012788;28;20091;-77
2023/06/11 04:09:05;;;;;;;11.82;9.07;;;;;;;17.50;61.93;101383.75;5009833;28;20563;-77
2023/06/11 04:11:30;;;;;;;9.32;7.93;;;;;;;17.57;61.57;101385.31;5010516;28;20045;-77
2023/06/11 04:13:55;;;;;;;9.88;8.88;;;;;;;17.67;61.40;101384.75;5025808;28;20022;-77
2023/06/11 04:16:21;;;;;;;9.60;8.60;;;;;;;17.73;61.21;101389.28;5016858;28;20038;-76
2023/06/11 04:18:47;;;;;;;10.40;8.32;;;;;;;17.82;61.02;101386.25;5020737;28;20025;-77
2023/06/11 04:21:13;;;;;;;11.02;8.60;;;;;;;17.90;60.71;101399.50;5025098;28;20091;-77
2023/06/11 04:23:38;;;;;;;10.07;8.30;;;;;;;18.00;60.23;101396.25;5029445;28;20636;-77
2023/06/11 04:26:07;;;;;;;9.48;8.50;;;;;;;18.09;60.00;101397.56;5018023;28;20668;-77
2023/06/11 04:28:36;;;;;;;10.00;8.77;;;;;;;18.26;59.37;101396.91;5033172;28;20040;-77
2023/06/11 04:31:01;;;;;;;9.70;8.70;;;;;;;18.41;59.28;101393.69;5026828;28;20087;-77
2023/06/11 04:33:36;;;;;;;9.40;8.40;;;;;;;18.70;58.67;101393.81;5009163;28;20038;-76
2023/06/11 04:36:04;;;;;;;14.70;8.40;;;;;;;19.27;56.87;101401.34;5007721;28;20071;-75
2023/06/11 04:38:30;;;;;;;10.65;8.57;;;;;;;20.13;54.30;101391.44;5026533;28;20390;-76
2023/06/11 04:40:56;;;;;;;8.70;7.90;;;;;;;20.88;52.82;101402.16;5015294;28;20021;-75
2023/06/11 04:43:25;;;;;;;8.63;7.82;;;;;;;21.54;50.84;101404.03;5008274;28;20465;-81
2023/06/11 04:45:55;;;;;;;9.98;8.02;;;;;;;22.20;49.04;101394.81;5016465;28;20034;-79
2023/06/11 04:48:24;;;;;;;8.98;8.07;;;;;;;22.58;47.64;101407.75;5022252;28;20036;-79
2023/06/11 04:50:51;;;;;;;9.48;8.57;;;;;;;22.87;46.69;101416.41;5017812;28;20037;-78
2023/06/11 04:53:24;;;;;;;8.32;7.40;;;;;;;23.10;46.37;101406.91;5010635;28;20030;-81
2023/06/11 04:55:50;;;;;;;10.23;7.88;;;;;;;23.09;46.36;101415.41;5003471;28;20107;-76
2023/06/11 04:58:16;;;;;;;8.60;7.70;;;;;;;23.61;45.54;101414.50;5001805;28;20389;-76
2023/06/11 05:00:42;;;;;;;8.82;7.90;;;;;;;24.05;44.61;101415.16;5011118;28;20034;-76
2023/06/11 05:03:16;;;;;;;10.40;7.93;;;;;;;24.21;43.64;101410.47;4996878;28;20029;-77
2023/06/11 05:05:49;;;;;;;9.48;7.75;;;;;;;24.19;44.13;101423.66;5008207;28;20041;-77
2023/06/11 05:08:18;;;;;;;8.45;7.70;;;;;;;24.49;43.67;101419.25;5008383;28;20051;-76
2023/06/11 05:10:43;;;;;;;8.68;7.68;;;;;;;25.08;42.01;101420.50;5011035;28;21267;-76
2023/06/11 05:13:09;;;;;;;8.30;7.45;;;;;;;25.05;42.33;101426.56;5020284;28;20041;-76
2023/06/11 05:15:35;;;;;;;8.10;7.30;;;;;;;25.04;42.56;101430.41;5022886;28;20033;-76
2023/06/11 05:18:00;;;;;;;8.52;7.72;;;;;;;25.02;41.89;101420.81;5028624;28;20030;-78
2023/06/11 05:20:26;;;;;;;10.40;7.07;;;;;;;25.49;41.62;101421.44;5031627;28;20049;-79
2023/06/11 05:22:58;;;;;;;8.38;7.55;;;;;;;25.53;41.08;101426.09;5014211;28;20038;-78
2023/06/11 05:25:27;;;;;;;8.13;7.35;;;;;;;25.83;40.70;101417.91;5022043;28;20026;-78
2023/06/11 05:27:53;;;;;;;9.57;7.53;;;;;;;26.20;40.64;101421.22;5027067;28;20045;-79
2023/06/11 05:30:24;;;;;;;7.32;6.72;;;;;;;26.66;39.31;101422.72;5026936;28;20037;-78
2023/06/11 05:32:49;;;;;;;7.80;7.10;;;;;;;26.96;38.56;101418.84;5010802;28;20039;-78
2023/06/11 05:35:15;;;;;;;7.63;6.93;;;;;;;26.80;38.92;101423.69;5011423;28;20129;-80
2023/06/11 05:37:40;;;;;;;7.75;6.97;;;;;;;27.16;38.51;101419.69;5025007;28;20041;-79
2023/06/11 05:40:09;;;;;;;8.45;7.20;;;;;;;26.99;38.67;101432.06;5018915;28;20536;-78
2023/06/11 05:42:35;;;;;;;8.23;7.00;;;;;;;26.66;39.24;101423.53;5014827;28;20041;-78
2023/06/11 05:45:00;;;;;;;8.30;6.55;;;;;;;26.86;39.03;101417.00;5007553;28;20048;-78
2023/06/11 05:47:25;;;;;;;7.47;6.72;;;;;;;26.64;39.18;101421.09;5020238;28;20036;-78
2023/06/11 05:49:51;;;;;;;7.78;7.03;;;;;;;26.74;39.08;101431.19;5013046;28;20322;-78
2023/06/11 05:52:16;;;;;;;7.97;7.18;;;;;;;26.76;38.77;101428.13;5010419;28;20044;-78
2023/06/11 05:54:41;;;;;;;8.10;7.13;;;;;;;27.46;38.20;101428.72;5013039;28;20029;-78
2023/06/11 05:57:19;;;;;;;9.57;7.07;;;;;;;27.42;37.58;101427.63;5019294;28;20048;-78
2023/06/11 05:59:44;;;;;;;7.30;6.57;;;;;;;27.78;37.48;101427.97;5015544;28;20029;-78
2023/06/11 06:02:10;;;;;;;11.80;7.07;;;;;;;27.93;37.29;101435.19;5013249;28;20030;-77
2023/06/11 06:04:35;;;;;;;7.18;6.50;;;;;;;28.04;37.19;101440.59;5013096;28;20067;-77
2023/06/11 06:07:00;;;;;;;7.38;6.65;;;;;;;28.23;36.39;101441.41;5011974;28;20377;-77
2023/06/11 06:09:26;;;;;;;9.40;6.88;;;;;;;28.13;36.18;101444.31;5030636;28;20051;-78
2023/06/11 06:11:52;;;;;;;9.77;7.03;;;;;;;28.67;36.08;101446.72;5031718;28;20029;-77
2023/06/11 06:14:17;;;;;;;7.63;6.82;;;;;;;28.23;36.21;101452.47;5013741;28;20025;-77
2023/06/11 06:16:43;;;;;;;7.25;6.53;;;;;;;28.50;36.58;101445.34;5009256;28;20052;-77
2023/06/11 06:19:09;;;;;;;7.55;6.55;;;;;;;28.81;35.58;101455.06;5019261;28;20025;-77
2023/06/11 06:21:34;;;;;;;7.47;6.78;;;;;;;28.52;35.64;101454.19;5010109;28;20409;-77
2023/06/11 06:23:59;;;;;;;7.45;6.65;;;;;;;28.28;36.01;101455.13;5012421;28;20060;-77
2023/06/11 06:26:26;;;;;;;8.80;7.00;;;;;;;28.98;34.81;101446.97;5018773;28;20018;-77
2023/06/11 06:28:53;;;;;;;8.45;6.60;;;;;;;29.71;33.91;101449.03;5010804;28;20030;-77
2023/06/11 06:31:20;;;;;;;7.68;6.97;;;;;;;29.37;34.63;101461.44;5012259;28;20037;-77
2023/06/11 06:33:46;;;;;;;8.23;6.32;;;;;;;29.49;34.79;101453.38;5011269;28;20540;-77
2023/06/11 06:36:11;;;;;;;6.82;6.22;;;;;;;29.68;34.63;101457.97;5009837;28;20018;-77
2023/06/11 06:38:38;;;;;;;6.70;6.10;;;;;;;30.23;33.24;101450.56;5014509;28;20112;-77
2023/06/11 06:41:03;;;;;;;7.00;6.35;;;;;;;30.57;32.79;101457.50;5009329;28;20112;-77
2023/06/11 06:43:29;;;;;;;7.18;6.10;;;;;;;31.82;30.32;101461.13;5010186;28;20049;-77
2023/06/11 06:45:54;;;;;;;6.10;5.60;;;;;;;32.91;28.96;101468.63;5010730;28;20049;-78
2023/06/11 06:48:21;;;;;;;6.65;6.13;;;;;;;31.99;30.13;101460.31;5010947;28;20033;-78
2023/06/11 06:50:47;;;;;;;5.88;5.45;;;;;;;31.96;30.67;101457.34;5011486;28;20041;-78
2023/06/11 06:53:14;;;;;;;5.85;5.35;;;;;;;32.35;30.16;101461.91;5011415;28;20113;-78
2023/06/11 06:55:44;;;;;;;6.90;6.07;;;;;;;32.33;30.25;101468.94;5007395;28;20388;-78
2023/06/11 06:58:09;;;;;;;6.82;6.13;;;;;;;32.01;29.93;101468.31;5026066;28;20030;-77
2023/06/11 07:00:35;;;;;;;6.30;5.70;;;;;;;31.83;30.64;101467.53;5015447;28;20088;-78
2023/06/11 07:03:01;;;;;;;6.50;5.63;;;;;;;32.66;29.61;101471.97;5020572;28;20032;-78
2023/06/11 07:05:27;;;;;;;7.00;6.35;;;;;;;31.87;30.05;101465.69;5025715;28;20556;-78
2023/06/11 07:07:54;;;;;;;6.35;5.57;;;;;;;31.80;30.86;101463.41;5022483;28;20113;-78
2023/06/11 07:10:20;;;;;;;6.53;5.60;;;;;;;32.55;29.93;101464.31;5019562;28;20164;-79
2023/06/11 07:12:45;;;;;;;6.35;5.53;;;;;;;32.73;29.30;101470.66;5034028;28;20029;-79
2023/06/11 07:15:10;;;;;;;7.22;6.18;;;;;;;33.33;28.18;101481.84;5033793;28;20042;-78
2023/06/11 07:17:36;;;;;;;7.55;5.72;;;;;;;33.10;28.40;101474.59;5035369;28;20376;-78
2023/06/11 07:20:04;;;;;;;7.30;5.90;;;;;;;32.79;29.43;101478.50;5033880;28;20115;-78
2023/06/11 07:22:29;;;;;;;7.30;5.55;;;;;;;32.91;28.80;101479.78;5033207;28;20068;-78
2023/06/11 07:24:56;;;;;;;6.95;6.25;;;;;;;33.16;27.98;101482.78;5009153;28;20022;-79
2023/06/11 07:27:27;;;;;;;6.10;5.50;;;;;;;33.99;28.11;101484.00;5024850;28;20072;-78
2023/06/11 07:29:52;;;;;;;7.38;5.97;;;;;;;33.21;28.53;101480.59;5032769;28;20033;-78
2023/06/11 07:32:21;;;;;;;5.60;5.10;;;;;;;34.50;27.25;101483.03;5035455;28;20029;-78
2023/06/11 07:34:48;;;;;;;6.28;5.38;;;;;;;34.75;26.44;101491.47;5034239;28;20040;-78
2023/06/11 07:37:14;;;;;;;6.28;5.50;;;;;;;33.82;27.35;101478.56;5033460;28;20029;-78
2023/06/11 07:39:57;;;;;;;6.40;5.85;;;;;;;33.88;28.14;101477.19;5027514;28;20028;-78
2023/06/11 07:42:22;;;;;;;7.57;5.50;;;;;;;34.06;27.80;101480.66;5023914;28;20036;-78
2023/06/11 07:44:49;;;;;;;6.47;5.10;;;;;;;35.21;25.37;101464.19;5033435;28;20033;-78
2023/06/11 07:47:17;;;;;;;6.18;4.95;;;;;;;35.99;24.11;101474.53;5041851;28;20166;-78
2023/06/11 07:49:43;;;;;;;6.15;5.28;;;;;;;36.02;24.69;101476.59;5033313;28;20176;-78
2023/06/11 07:52:08;;;;;;;6.05;5.45;;;;;;;35.58;24.64;101473.72;5032971;28;20485;-79
2023/06/11 07:54:33;;;;;;;5.72;5.10;;;;;;;35.59;25.21;101472.56;5033069;28;20029;-78
2023/06/11 07:56:59;;;;;;;6.93;5.78;;;;;;;35.94;24.08;101471.97;5031047;28;20462;-78
2023/06/11 07:59:24;;;;;;;8.30;5.55;;;;;;;35.83;24.70;101473.66;5019922;28;20026;-78
2023/06/11 08:01:49;;;;;;;8.90;5.50;;;;;;;35.56;24.62;101470.44;4986645;28;20482;-78
2023/06/11 08:04:15;;;;;;;5.63;5.20;;;;;;;34.64;25.73;101465.94;5033051;28;20030;-78
2023/06/11 08:06:41;;;;;;;11.43;5.25;;;;;;;34.71;25.71;101468.16;5032102;28;20046;-78
2023/06/11 08:09:08;;;;;;;7.18;5.35;;;;;;;35.38;24.57;101476.28;5015736;28;20075;-78
2023/06/11 08:11:33;;;;;;;7.60;5.43;;;;;;;35.76;24.77;101475.06;5031692;28;20030;-78
2023/06/11 08:13:59;;;;;;;5.63;5.13;;;;;;;36.19;24.06;101475.47;5031135;28;20045;-79
2023/06/11 08:16:31;;;;;;;5.90;5.40;;;;;;;35.81;24.48;101482.38;5030855;28;20021;-78
2023/06/11 08:18:57;;;;;;;5.70;5.20;;;;;;;35.35;25.14;101472.22;5029230;28;20041;-79
2023/06/11 08:21:24;;;;;;;7.00;5.20;;;;;;;35.72;24.83;101468.53;5032898;28;20035;-78
2023/06/11 08:23:51;;;;;;;7.22;5.10;;;;;;;36.07;24.21;101462.34;5033136;28;20030;-78
2023/06/11 08:26:17;;;;;;;5.57;5.05;;;;;;;36.06;24.43;101460.72;5032226;28;20029;-78
2023/06/11 08:28:42;;;;;;;5.55;4.97;;;;;;;36.33;23.48;101461.03;5032967;28;20035;-79
2023/06/11 08:31:08;;;;;;;7.18;5.07;;;;;;;36.68;23.89;101457.56;5030816;28;20044;-79
2023/06/11 08:33:33;;;;;;;5.30;4.80;;;;;;;36.91;23.60;101456.88;5020803;28;20031;-78
2023/06/11 08:35:58;;;;;;;5.35;4.82;;;;;;;36.20;24.18;101465.06;5032129;28;20048;-79
2023/06/11 08:38:27;;;;;;;5.35;4.43;;;;;;;36.61;23.13;101457.34;5033067;28;20063;-78
2023/06/11 08:40:53;;;;;;;5.43;4.82;;;;;;;36.14;23.47;101460.91;5025307;28;20038;-78
2023/06/11 08:43:19;;;;;;;5.60;4.68;;;;;;;35.76;24.03;101461.06;5032086;28;20037;-79
2023/06/11 08:45:45;;;;;;;5.32;4.72;;;;;;;36.10;23.67;101458.00;5015321;28;20481;-79
2023/06/11 08:48:10;;;;;;;5.10;4.70;;;;;;;36.50;23.11;101464.69;5014966;28;20018;-78
2023/06/11 08:50:36;;;;;;;5.10;4.65;;;;;;;36.99;22.66;101461.53;5014542;28;20495;-78
2023/06/11 08:53:02;;;;;;;4.95;4.50;;;;;;;37.05;22.99;101461.25;5012431;28;20048;-79
2023/06/11 08:55:30;;;;;;;6.50;5.10;;;;;;;36.60;22.99;101466.94;5031821;28;20029;-78
2023/06/11 08:57:56;;;;;;;5.47;4.95;;;;;;;36.30;23.47;101452.50;5032362;28;20060;-79
2023/06/11 09:00:22;;;;;;;5.78;5.13;;;;;;;36.55;22.85;101456.00;5032270;28;20102;-79
2023/06/11 09:02:47;;;;;;;5.93;4.57;;;;;;;36.59;22.93;101454.09;5031831;28;20434;-78
2023/06/11 09:05:12;;;;;;;5.28;4.65;;;;;;;37.60;21.70;101450.84;5014145;28;20044;-79
2023/06/11 09:07:38;;;;;;;5.00;4.60;;;;;;;37.29;21.88;101446.94;5027789;28;20079;-79
2023/06/11 09:10:04;;;;;;;5.40;5.00;;;;;;;36.86;21.87;101451.56;5013779;28;20131;-79
2023/06/11 09:12:29;;;;;;;5.82;5.10;;;;;;;36.81;22.09;101454.63;5016276;28;20038;-78
2023/06/11 09:14:55;;;;;;;9.82;5.07;;;;;;;36.61;22.42;101457.34;5031685;28;20027;-78
2023/06/11 09:17:20;;;;;;;7.57;5.25;;;;;;;36.10;22.55;101456.03;5028064;28;20023;-79
2023/06/11 09:19:45;;;;;;;5.13;4.65;;;;;;;36.71;21.80;101445.56;5024245;28;20041;-79
2023/06/11 09:22:11;;;;;;;5.20;4.70;;;;;;;36.55;21.87;101453.19;5014678;28;20025;-78
2023/06/11 09:24:36;;;;;;;6.22;4.70;;;;;;;36.84;22.15;101445.50;5032717;28;20029;-79
2023/06/11 09:27:02;;;;;;;7.50;5.32;;;;;;;36.37;22.18;101447.09;5032076;28;20550;-79
2023/06/11 09:29:28;;;;;;;8.35;4.90;;;;;;;37.00;21.27;101446.31;5020438;28;20036;-79
2023/06/11 09:32:04;;;;;;;5.20;4.80;;;;;;;37.54;21.11;101451.50;5026883;28;20029;-79
2023/06/11 09:34:31;;;;;;;6.15;4.85;;;;;;;37.08;21.75;101452.91;5031731;28;20360;-78
2023/06/11 09:37:00;;;;;;;7.50;5.55;;;;;;;37.28;20.76;101447.31;5031722;28;20408;-79
2023/06/11 09:39:25;;;;;;;5.35;4.95;;;;;;;37.26;20.41;101447.66;5032377;28;20515;-79
2023/06/11 09:41:51;;;;;;;5.35;4.95;;;;;;;36.23;22.11;101447.53;5031922;28;20021;-79
2023/06/11 09:44:17;;;;;;;7.07;4.90;;;;;;;36.96;21.74;101445.41;5030129;28;20028;-79
2023/06/11 09:46:43;;;;;;;6.78;5.18;;;;;;;36.65;21.48;101452.66;5024326;28;20481;-79
2023/06/11 09:49:08;;;;;;;5.13;4.72;;;;;;;36.41;22.15;101453.63;5010055;28;20029;-79
2023/06/11 09:51:35;;;;;;;5.75;5.18;;;;;;;36.49;21.94;101452.66;4995950;28;20038;-80
2023/06/11 09:54:01;;;;;;;5.50;5.03;;;;;;;36.00;22.18;101459.34;5014834;28;20033;-79
2023/06/11 09:56:26;;;;;;;5.32;4.75;;;;;;;37.19;21.25;101460.75;4997122;28;20029;-79
2023/06/11 09:58:52;;;;;;;5.72;4.72;;;;;;;37.20;20.92;101451.97;5033046;28;20075;-79
2023/06/11 10:01:17;;;;;;;5.97;5.00;;;;;;;36.83;20.77;101443.88;5034744;28;20017;-79
2023/06/11 10:03:45;;;;;;;6.45;5.50;;;;;;;36.09;21.87;101454.38;5000448;28;20036;-79
2023/06/11 10:06:13;;;;;;;5.25;4.85;;;;;;;35.92;22.44;101454.69;5031555;28;20029;-79
2023/06/11 10:08:38;;;;;;;7.10;5.20;;;;;;;36.58;22.11;101451.66;5016502;28;20059;-79
2023/06/11 10:11:04;;;;;;;5.00;4.47;;;;;;;37.34;20.62;101453.47;4988760;28;20035;-79
2023/06/11 10:13:31;;;;;;;5.43;4.90;;;;;;;37.73;20.44;101464.75;4993689;28;20496;-79
2023/06/11 10:15:59;;;;;;;5.20;4.70;;;;;;;37.54;20.47;101452.31;4992833;28;20030;-79
2023/06/11 10:18:25;;;;;;;5.45;4.57;;;;;;;36.86;21.64;101452.34;4982376;28;20042;-79
2023/06/11 10:20:54;;;;;;;5.38;4.80;;;;;;;37.26;20.54;101458.91;4991647;28;20398;-77
2023/06/11 10:23:20;;;;;;;5.80;4.50;;;;;;;37.60;20.25;101455.66;4992894;28;20030;-78
2023/06/11 10:25:54;;;;;;;5.40;4.90;;;;;;;37.43;20.99;101448.47;4990930;28;20034;-78
2023/06/11 10:28:19;;;;;;;6.05;5.28;;;;;;;37.00;21.06;101449.13;4991585;28;20027;-78
2023/06/11 10:30:52;;;;;;;6.05;4.70;;;;;;;37.51;20.24;101444.63;4992618;28;20363;-77
2023/06/11 10:33:18;;;;;;;5.22;4.72;;;;;;;37.66;20.32;101458.97;4990299;28;20440;-78
2023/06/11 10:35:46;;;;;;;6.13;5.03;;;;;;;36.37;21.00;101453.50;4998149;28;20032;-78
2023/06/11 10:38:16;;;;;;;5.35;4.85;;;;;;;35.35;22.62;101454.59;5000214;28;20026;-78
2023/06/11 10:40:42;;;;;;;10.30;5.30;;;;;;;35.50;22.28;101451.09;4997607;28;20022;-78
2023/06/11 10:43:20;;;;;;;5.75;5.20;;;;;;;36.15;21.64;101451.34;4997846;28;20385;-78
2023/06/11 10:45:46;;;;;;;6.65;5.22;;;;;;;36.84;21.44;101434.28;4998310;28;20034;-79
2023/06/11 10:48:11;;;;;;;5.18;4.68;;;;;;;38.10;19.64;101452.22;4988400;28;20045;-78
2023/06/11 10:50:37;;;;;;;4.97;4.57;;;;;;;38.17;19.70;101441.91;5008842;28;20034;-79
2023/06/11 10:53:09;;;;;;;4.97;4.57;;;;;;;37.57;20.56;101445.97;5004097;28;20030;-78
2023/06/11 10:55:34;;;;;;;5.53;5.05;;;;;;;36.57;21.09;101439.63;4996823;28;20532;-79
2023/06/11 10:58:00;;;;;;;5.07;4.68;;;;;;;36.15;21.38;101437.31;4998195;28;20030;-79
2023/06/11 11:00:32;;;;;;;5.10;4.70;;;;;;;37.86;19.96;101440.13;5006898;23;20034;-79
2023/06/11 11:02:58;;;;;;;5.40;4.90;;;;;;;38.11;20.23;101435.00;5050428;28;20029;-79
2023/06/11 11:05:24;;;;;;;5.93;4.90;;;;;;;38.69;19.77;101440.81;5049530;28;20464;-79
2023/06/11 11:07:49;;;;;;;4.85;4.43;;;;;;;38.26;19.47;101444.50;5048149;28;20041;-79
2023/06/11 11:10:18;;;;;;;4.97;4.40;;;;;;;38.69;18.89;101444.44;5048961;28;20020;-79
2023/06/11 11:12:47;;;;;;;5.72;4.93;;;;;;;37.80;20.06;101445.22;5048602;28;20037;-79
2023/06/11 11:15:13;;;;;;;7.15;5.13;;;;;;;37.30;20.40;101433.75;5052404;28;20033;-78
2023/06/11 11:17:39;;;;;;;6.25;4.70;;;;;;;37.88;19.52;101432.09;5052077;28;20070;-79
2023/06/11 11:20:09;;;;;;;5.65;4.25;;;;;;;38.32;19.92;101434.56;5035385;28;20041;-78
2023/06/11 11:22:35;;;;;;;5.18;4.68;;;;;;;38.15;19.88;101430.22;5045586;28;20029;-78